Vers la page d'accueil de NAV CANADA Ouverture d'une nouvelle session Chercher sur le site AWWS Clause de non-reponsabilité To the equivalent English page Trucs et astuces FAQ Quoi de neuf sur le site Vers la section Prévisions et observations / NOTAM Vers le site web pour <<Déposer un plan de vol>> Publications et liens importants Mise à jour du profil d'usager Numéros de téléphone des FIC Mes données météo personnelles Données météo de route Données météo régionales Données météo locales Vers la section Prévisions et observations / NOTAM
Requête générée le 2022/06/30 à 10:46:35 UTC. L'information météorologique disponible à ce moment est affichée.

METAR/TAF

Si vous notez des différences entre le METAR/TAF codé et le METAR/TAF en langage clair, veuillez utiliser la version codée. Les bulletins LWIS ne sont pas décodés en langage clair.

QUEBEC/JEAN LESAGE INTL/QC    (voir Cam météo)

METAR CYQB 301000Z VRB02KT 30SM FEW008 BKN045 BKN063 13/11 A3016 RMK SF1SC5SC1 TR SLP215=
METAR
LIEU
CYQB - QUEBEC/JEAN LESAGE INTL/QC
DATE - HEURE
30 JUIN 2022 - 1000 UTC
VENT
VRB @ 2  NOEUDS
VISIBILITE
30 MILLES TERR.
PORTEE VISUELLE DE PISTE
METEO
NEBULOSITE
QUELQUES NUAGES (1/8 - 2/8) 800  PI
NUAGES FRAGMENTES (5/8 - 7/8) 4500  PI
NUAGES FRAGMENTES (5/8 - 7/8) 6300  PI
TEMP / PT DE ROSEE
13 C / 11 C
ALTIMETRE
30.16 PO HG
TEMPS RECENT
CISAILLEMENT

METAR CYQB 300900Z 35003KT 30SM FEW008 BKN039 13/12 A3014 RMK SF1SC7 SF TR SLP2 =
METAR
LIEU
CYQB - QUEBEC/JEAN LESAGE INTL/QC
DATE - HEURE
30 JUIN 2022 - 0900 UTC
VENT
350 VRAIS @ 3  NOEUDS
VISIBILITE
30 MILLES TERR.
PORTEE VISUELLE DE PISTE
METEO
NEBULOSITE
QUELQUES NUAGES (1/8 - 2/8) 800  PI
NUAGES FRAGMENTES (5/8 - 7/8) 3900  PI
TEMP / PT DE ROSEE
13 C / 12 C
ALTIMETRE
30.14 PO HG
TEMPS RECENT
CISAILLEMENT

METAR CYQB 300800Z 01005KT 15SM FEW005 FEW034 BKN046 13/11 A3012 RMK SF1SC2SC5 TR SLP202=
METAR
LIEU
CYQB - QUEBEC/JEAN LESAGE INTL/QC
DATE - HEURE
30 JUIN 2022 - 0800 UTC
VENT
10 VRAIS @ 5  NOEUDS
VISIBILITE
15 MILLES TERR.
PORTEE VISUELLE DE PISTE
METEO
NEBULOSITE
QUELQUES NUAGES (1/8 - 2/8) 500  PI
QUELQUES NUAGES (1/8 - 2/8) 3400  PI
NUAGES FRAGMENTES (5/8 - 7/8) 4600  PI
TEMP / PT DE ROSEE
13 C / 11 C
ALTIMETRE
30.12 PO HG
TEMPS RECENT
CISAILLEMENT

Votre heure Heure UTC
Données météorologiques fournies par Environnement Canada et NAV CANADA